Time;durP1;ratioP1;P1;durP2;ratioP2;P2;SDS_P1;SDS_P2;PMS_P1;PMS_P2;Temp;Humidity;BMP_temperature;BMP_pressure;BME280_temperature;BME280_humidity;BME280_pressure;Samples;Min_cycle;Max_cycle;Signal;HPM_P1;HPM_P2
2022/04/04 00:01:02;;;;;;;8.25;3.60;;;1.70;87.40;;;;;;5064969;28;20028;-80
2022/04/04 00:03:27;;;;;;;6.43;3.28;;;1.70;87.30;;;;;;5069496;28;20402;-80
2022/04/04 00:05:53;;;;;;;7.63;3.60;;;1.70;87.40;;;;;;5066216;28;20364;-80
2022/04/04 00:08:18;;;;;;;5.55;3.50;;;1.70;87.40;;;;;;5065934;28;20124;-79
2022/04/04 00:10:44;;;;;;;8.15;3.58;;;1.60;87.40;;;;;;5066345;28;20055;-80
2022/04/04 00:13:09;;;;;;;8.32;3.53;;;1.60;87.60;;;;;;5070090;28;20033;-79
2022/04/04 00:15:35;;;;;;;6.38;3.47;;;1.60;87.60;;;;;;5062660;28;20028;-80
2022/04/04 00:18:08;;;;;;;8.15;3.53;;;1.60;87.60;;;;;;5067755;28;20020;-80
2022/04/04 00:20:34;;;;;;;6.20;3.63;;;1.60;87.70;;;;;;5066839;28;20124;-80
2022/04/04 00:23:00;;;;;;;10.50;4.40;;;1.50;87.70;;;;;;5064739;28;20052;-80
2022/04/04 00:25:25;;;;;;;9.05;3.58;;;1.60;87.80;;;;;;5065988;28;20071;-80
2022/04/04 00:27:51;;;;;;;5.95;3.40;;;1.60;87.80;;;;;;5067573;28;20043;-80
2022/04/04 00:30:16;;;;;;;7.78;3.47;;;1.60;87.80;;;;;;5067979;28;20032;-80
2022/04/04 00:32:43;;;;;;;7.72;3.55;;;1.60;87.80;;;;;;5066370;28;20557;-79
2022/04/04 00:35:09;;;;;;;9.15;3.10;;;1.60;87.80;;;;;;5065017;28;20047;-80
2022/04/04 00:37:37;;;;;;;5.97;3.47;;;1.60;87.80;;;;;;5070380;28;20651;-80
2022/04/04 00:40:04;;;;;;;6.57;3.55;;;1.60;87.80;;;;;;5060635;28;20447;-80
2022/04/04 00:42:30;;;;;;;8.63;3.50;;;1.60;87.70;;;;;;5053003;28;20040;-80
2022/04/04 00:44:55;;;;;;;8.27;3.92;;;1.60;87.70;;;;;;5056450;28;20475;-80
2022/04/04 00:47:21;;;;;;;7.00;3.00;;;1.60;87.50;;;;;;5072121;28;20758;-79
2022/04/04 00:49:48;;;;;;;12.65;3.65;;;1.60;87.60;;;;;;5065213;28;20277;-80
2022/04/04 00:52:13;;;;;;;7.65;3.70;;;1.60;87.50;;;;;;5073753;28;20029;-80
2022/04/04 00:54:39;;;;;;;7.50;3.25;;;1.60;87.50;;;;;;5065876;28;20151;-79
2022/04/04 00:57:05;;;;;;;6.00;3.17;;;1.60;87.50;;;;;;5071321;28;20060;-80
2022/04/04 00:59:31;;;;;;;6.25;3.13;;;1.60;87.50;;;;;;5073519;28;20025;-80
2022/04/04 01:01:57;;;;;;;6.82;3.20;;;1.60;87.50;;;;;;5054814;28;20155;-80
2022/04/04 01:04:22;;;;;;;6.55;3.20;;;1.60;87.50;;;;;;5052347;28;20483;-79
2022/04/04 01:06:48;;;;;;;3.58;2.33;;;1.60;87.50;;;;;;5052533;28;20054;-80
2022/04/04 01:09:16;;;;;;;5.93;2.95;;;1.60;87.60;;;;;;5070804;28;20143;-80
2022/04/04 01:12:08;;;;;;;7.78;3.33;;;1.60;87.60;;;;;;5068724;28;20024;-80
2022/04/04 01:14:46;;;;;;;9.10;3.40;;;1.60;87.50;;;;;;5043464;28;20112;-80
2022/04/04 01:17:13;;;;;;;6.25;3.08;;;1.60;87.60;;;;;;5071132;28;20119;-80
2022/04/04 01:19:39;;;;;;;5.05;3.03;;;1.60;87.70;;;;;;5064926;28;20607;-80
2022/04/04 01:22:08;;;;;;;7.28;3.13;;;1.70;87.60;;;;;;5067317;28;20031;-80
2022/04/04 01:24:34;;;;;;;8.25;3.45;;;1.60;87.50;;;;;;5050321;28;20116;-80
2022/04/04 01:27:00;;;;;;;5.47;3.28;;;1.60;87.60;;;;;;5050721;28;20032;-79
2022/04/04 01:29:26;;;;;;;7.47;3.25;;;1.70;87.70;;;;;;5068986;28;20028;-80
2022/04/04 01:31:52;;;;;;;7.53;3.08;;;1.60;87.60;;;;;;5072134;28;20032;-79
2022/04/04 01:34:19;;;;;;;6.05;3.33;;;1.60;87.70;;;;;;5068094;28;20360;-80
2022/04/04 01:36:45;;;;;;;7.00;3.20;;;1.60;87.90;;;;;;5063639;28;20052;-80
2022/04/04 01:39:10;;;;;;;6.65;2.90;;;1.60;87.90;;;;;;5072548;28;20031;-80
2022/04/04 01:41:36;;;;;;;7.80;3.40;;;1.50;88.00;;;;;;5045419;28;20036;-80
2022/04/04 01:44:02;;;;;;;5.72;2.80;;;1.60;88.20;;;;;;5054727;28;20035;-80
2022/04/04 01:46:28;;;;;;;5.85;3.30;;;1.60;88.20;;;;;;5054970;28;20059;-80
2022/04/04 01:48:57;;;;;;;4.55;2.75;;;1.60;88.30;;;;;;5070542;28;20021;-79
2022/04/04 01:51:23;;;;;;;5.78;3.10;;;1.50;88.30;;;;;;5068337;28;20089;-80
2022/04/04 01:53:48;;;;;;;7.78;3.22;;;1.50;88.40;;;;;;5052454;28;20429;-79
2022/04/04 01:56:14;;;;;;;4.80;2.65;;;1.50;88.50;;;;;;5054079;28;20059;-80
2022/04/04 01:58:40;;;;;;;8.45;2.83;;;1.50;88.60;;;;;;5053012;28;20024;-80
2022/04/04 02:01:13;;;;;;;6.13;3.60;;;1.60;88.60;;;;;;5051952;28;20280;-80
2022/04/04 02:03:39;;;;;;;4.40;2.65;;;1.50;88.80;;;;;;5069002;28;20027;-80
2022/04/04 02:06:05;;;;;;;7.07;2.40;;;1.50;89.00;;;;;;5064440;28;20086;-80
2022/04/04 02:08:31;;;;;;;5.90;3.40;;;1.50;89.00;;;;;;5052624;28;20028;-80
2022/04/04 02:10:57;;;;;;;8.30;3.28;;;1.50;89.10;;;;;;5052020;28;20028;-80
2022/04/04 02:13:25;;;;;;;6.50;2.83;;;1.50;89.20;;;;;;5069558;28;20071;-80
2022/04/04 02:15:55;;;;;;;9.10;2.35;;;1.50;89.10;;;;;;5053577;28;20024;-80
2022/04/04 02:18:20;;;;;;;6.80;3.40;;;1.50;89.30;;;;;;5054179;28;20568;-79
2022/04/04 02:20:47;;;;;;;8.27;3.38;;;1.50;89.40;;;;;;5063706;28;20130;-80
2022/04/04 02:23:17;;;;;;;6.85;3.45;;;1.50;89.40;;;;;;5046356;28;20032;-80
2022/04/04 02:25:44;;;;;;;8.00;3.03;;;1.50;89.40;;;;;;5067832;28;20032;-80
2022/04/04 02:28:09;;;;;;;7.25;3.03;;;1.50;89.40;;;;;;5050662;28;20021;-80
2022/04/04 02:30:35;;;;;;;5.20;3.25;;;1.50;89.50;;;;;;5064522;28;20025;-80
2022/04/04 02:33:01;;;;;;;6.57;3.38;;;1.60;89.50;;;;;;5046204;28;20040;-80
2022/04/04 02:35:27;;;;;;;7.45;3.50;;;1.60;89.50;;;;;;5039191;28;20040;-79
2022/04/04 02:37:53;;;;;;;7.13;3.13;;;1.60;89.60;;;;;;5025390;28;20025;-80
2022/04/04 02:40:19;;;;;;;6.20;3.40;;;1.60;89.50;;;;;;5044209;28;20044;-80
2022/04/04 02:42:45;;;;;;;5.03;3.00;;;1.60;89.40;;;;;;5049754;28;20029;-79
2022/04/04 02:45:10;;;;;;;5.18;3.00;;;1.60;89.40;;;;;;5030986;28;20059;-80
2022/04/04 02:47:36;;;;;;;6.43;3.38;;;1.60;89.50;;;;;;5032045;28;20048;-80
2022/04/04 02:50:02;;;;;;;9.25;3.72;;;1.60;89.40;;;;;;5025985;28;20039;-79
2022/04/04 02:52:27;;;;;;;4.10;2.72;;;1.60;89.30;;;;;;5040171;28;20033;-80
2022/04/04 02:54:53;;;;;;;10.40;3.17;;;1.70;89.40;;;;;;5049753;28;20035;-80
2022/04/04 02:57:18;;;;;;;6.75;3.40;;;1.70;89.30;;;;;;5033903;28;20024;-80
2022/04/04 02:59:45;;;;;;;8.13;3.58;;;1.70;89.30;;;;;;5030388;28;20108;-80
2022/04/04 03:02:11;;;;;;;6.63;3.35;;;1.70;89.30;;;;;;5018308;28;20068;-80
2022/04/04 03:04:40;;;;;;;6.53;3.15;;;1.70;89.20;;;;;;5029136;28;20033;-80
2022/04/04 03:07:09;;;;;;;6.43;2.63;;;1.70;89.10;;;;;;5030180;28;20045;-80
2022/04/04 03:09:35;;;;;;;6.07;2.95;;;1.80;89.00;;;;;;5028831;28;20025;-80
2022/04/04 03:12:01;;;;;;;8.18;3.53;;;1.80;88.70;;;;;;5026481;28;20033;-80
2022/04/04 03:14:28;;;;;;;5.13;2.80;;;1.90;88.60;;;;;;5046663;28;20021;-80
2022/04/04 03:16:54;;;;;;;7.22;3.08;;;1.80;88.50;;;;;;5051348;28;20017;-80
2022/04/04 03:19:20;;;;;;;10.00;3.35;;;1.90;88.50;;;;;;5020162;28;20400;-80
2022/04/04 03:21:45;;;;;;;6.60;3.28;;;1.90;88.50;;;;;;5050589;28;20024;-80
2022/04/04 03:24:11;;;;;;;6.05;3.45;;;1.90;88.60;;;;;;5046674;28;20055;-80
2022/04/04 03:26:37;;;;;;;6.88;3.35;;;1.90;88.50;;;;;;5035052;28;20116;-81
2022/04/04 03:29:03;;;;;;;8.55;3.47;;;1.90;88.50;;;;;;5026782;28;20559;-80
2022/04/04 03:31:28;;;;;;;7.47;3.33;;;1.90;88.40;;;;;;5034195;28;20033;-79
2022/04/04 03:33:54;;;;;;;5.97;2.85;;;1.90;88.40;;;;;;5039356;28;20093;-79
2022/04/04 03:36:20;;;;;;;4.70;2.95;;;1.90;88.30;;;;;;5046320;28;20041;-79
2022/04/04 03:38:46;;;;;;;5.10;3.00;;;2.00;88.10;;;;;;5064829;28;20460;-79
2022/04/04 03:41:11;;;;;;;6.93;3.45;;;2.00;88.10;;;;;;5070903;28;20039;-79
2022/04/04 03:43:37;;;;;;;6.63;3.05;;;2.00;88.10;;;;;;5061073;28;20043;-79
2022/04/04 03:46:03;;;;;;;5.53;3.15;;;2.00;88.00;;;;;;5064968;28;20086;-79
2022/04/04 03:48:28;;;;;;;6.35;3.42;;;2.10;87.90;;;;;;5064841;28;20021;-79
2022/04/04 03:50:54;;;;;;;7.90;3.25;;;2.10;87.70;;;;;;5062390;28;20032;-79
2022/04/04 03:53:21;;;;;;;8.43;3.47;;;2.10;87.80;;;;;;5062621;28;20078;-79
2022/04/04 03:55:48;;;;;;;8.05;3.35;;;2.10;87.70;;;;;;5071557;28;20027;-79
2022/04/04 03:58:14;;;;;;;5.60;3.20;;;2.10;87.60;;;;;;5072198;28;20021;-79
2022/04/04 04:00:40;;;;;;;8.23;3.67;;;2.20;87.40;;;;;;5061636;28;20032;-81
2022/04/04 04:03:07;;;;;;;5.85;3.38;;;2.20;87.40;;;;;;5067876;28;20149;-79
2022/04/04 04:05:33;;;;;;;6.10;3.92;;;2.20;87.30;;;;;;5064211;28;20025;-79
2022/04/04 04:07:59;;;;;;;4.72;2.88;;;2.20;87.20;;;;;;5070366;28;20017;-79
2022/04/04 04:10:25;;;;;;;6.97;3.88;;;2.20;87.20;;;;;;5068793;28;20432;-79
2022/04/04 04:12:50;;;;;;;9.23;3.55;;;2.20;87.20;;;;;;5064775;28;20028;-79
2022/04/04 04:15:19;;;;;;;11.07;4.15;;;2.20;87.10;;;;;;5067533;28;20561;-79
2022/04/04 04:17:45;;;;;;;4.30;2.95;;;2.30;87.10;;;;;;5071648;28;20028;-79
2022/04/04 04:20:20;;;;;;;8.05;3.75;;;2.20;87.00;;;;;;5064966;28;20035;-79
2022/04/04 04:22:58;;;;;;;9.73;4.00;;;2.30;87.00;;;;;;5071928;28;20025;-79
2022/04/04 04:25:27;;;;;;;6.80;3.33;;;2.30;86.70;;;;;;5072446;28;20463;-80
2022/04/04 04:27:54;;;;;;;7.82;3.33;;;2.30;86.50;;;;;;5069469;28;20543;-80
2022/04/04 04:30:19;;;;;;;6.63;3.50;;;2.40;86.40;;;;;;5066104;28;20489;-80
2022/04/04 04:32:48;;;;;;;9.90;4.60;;;2.30;86.50;;;;;;5070296;28;20044;-80
2022/04/04 04:35:15;;;;;;;8.73;3.70;;;2.40;86.50;;;;;;5066608;28;20036;-80
2022/04/04 04:37:41;;;;;;;7.32;4.32;;;2.30;86.50;;;;;;5066098;28;20048;-80
2022/04/04 04:40:07;;;;;;;10.30;3.97;;;2.40;86.30;;;;;;5071383;28;20025;-80
2022/04/04 04:42:33;;;;;;;6.78;4.25;;;2.30;86.20;;;;;;5070245;28;20055;-80
2022/04/04 04:45:00;;;;;;;8.20;4.38;;;2.30;86.20;;;;;;5067803;28;20087;-79
2022/04/04 04:47:26;;;;;;;7.95;4.75;;;2.30;86.20;;;;;;5068807;28;20040;-80
2022/04/04 04:49:51;;;;;;;8.88;4.18;;;2.30;86.20;;;;;;5071686;28;20046;-80
2022/04/04 04:52:17;;;;;;;8.18;4.50;;;2.30;86.30;;;;;;5070687;28;20459;-80
2022/04/04 04:54:43;;;;;;;7.20;4.70;;;2.30;86.20;;;;;;5058646;28;20499;-80
2022/04/04 04:57:09;;;;;;;9.00;4.45;;;2.30;86.10;;;;;;5064589;28;20021;-80
2022/04/04 04:59:34;;;;;;;11.27;5.63;;;2.30;86.10;;;;;;5069987;28;20037;-80
2022/04/04 05:02:00;;;;;;;8.75;5.07;;;2.30;86.20;;;;;;5063474;28;20032;-81
2022/04/04 05:04:26;;;;;;;11.40;5.28;;;2.30;86.30;;;;;;5061967;28;20498;-84
2022/04/04 05:06:51;;;;;;;9.65;5.65;;;2.40;86.00;;;;;;5076209;28;20404;-82
2022/04/04 05:09:17;;;;;;;10.57;5.63;;;2.30;86.10;;;;;;5073025;28;20024;-80
2022/04/04 05:11:43;;;;;;;13.50;5.97;;;2.40;86.20;;;;;;5071574;28;20422;-80
2022/04/04 05:14:15;;;;;;;10.82;5.60;;;2.40;85.90;;;;;;5069370;28;20108;-80
2022/04/04 05:16:47;;;;;;;11.60;5.60;;;2.40;85.90;;;;;;5064286;28;20021;-80
2022/04/04 05:19:13;;;;;;;7.95;4.65;;;2.50;86.00;;;;;;5068659;28;20522;-80
2022/04/04 05:21:40;;;;;;;9.88;5.82;;;2.50;85.90;;;;;;5072207;28;20054;-80
2022/04/04 05:24:06;;;;;;;11.20;6.50;;;2.50;85.70;;;;;;5074310;28;20029;-80
2022/04/04 05:26:32;;;;;;;10.23;5.90;;;2.50;85.70;;;;;;5073037;28;20128;-80
2022/04/04 05:28:58;;;;;;;8.13;6.07;;;2.50;85.90;;;;;;5067821;28;20127;-80
2022/04/04 05:31:24;;;;;;;9.68;5.90;;;2.60;85.90;;;;;;5070008;28;20499;-81
2022/04/04 05:33:50;;;;;;;10.90;6.70;;;2.60;85.80;;;;;;5066802;28;20021;-80
2022/04/04 05:36:16;;;;;;;10.02;6.82;;;2.60;85.80;;;;;;5069908;28;20098;-80
2022/04/04 05:38:41;;;;;;;8.25;6.13;;;2.60;85.80;;;;;;5062315;28;20025;-80
2022/04/04 05:41:07;;;;;;;8.98;5.70;;;2.60;85.90;;;;;;5043287;28;20341;-80
2022/04/04 05:43:33;;;;;;;10.60;7.43;;;2.70;85.60;;;;;;5064646;28;20486;-80
2022/04/04 05:45:58;;;;;;;10.23;6.78;;;2.70;85.70;;;;;;5050893;28;20032;-81
2022/04/04 05:48:27;;;;;;;11.73;6.28;;;2.70;85.60;;;;;;5046861;28;20017;-80
2022/04/04 05:50:53;;;;;;;12.95;7.35;;;2.80;85.50;;;;;;5051735;28;20033;-81
2022/04/04 05:53:19;;;;;;;11.20;7.47;;;2.80;85.40;;;;;;5048053;28;20481;-80
2022/04/04 05:55:45;;;;;;;11.02;7.10;;;2.80;85.20;;;;;;5070065;28;20192;-80
2022/04/04 05:58:10;;;;;;;11.27;7.30;;;2.90;85.10;;;;;;5072716;28;20021;-80
2022/04/04 06:00:36;;;;;;;11.20;7.18;;;2.90;85.10;;;;;;5065756;28;20092;-80
2022/04/04 06:03:02;;;;;;;11.98;7.93;;;2.90;85.20;;;;;;5046653;28;20054;-79
2022/04/04 06:05:28;;;;;;;11.60;7.38;;;2.90;85.10;;;;;;5061587;28;20033;-80
2022/04/04 06:07:53;;;;;;;14.63;8.23;;;3.00;85.30;;;;;;5071069;28;20036;-83
2022/04/04 06:10:19;;;;;;;10.98;7.95;;;2.90;85.50;;;;;;5062867;28;20044;-80
2022/04/04 06:12:44;;;;;;;8.82;5.25;;;2.90;85.80;;;;;;5043411;28;20036;-79
2022/04/04 06:15:10;;;;;;;9.85;7.68;;;2.90;86.20;;;;;;5064294;28;20082;-81
2022/04/04 06:17:37;;;;;;;10.93;5.82;;;2.80;86.50;;;;;;5061468;28;20117;-79
2022/04/04 06:20:03;;;;;;;12.60;8.18;;;2.80;86.50;;;;;;5045790;28;20439;-81
2022/04/04 06:22:34;;;;;;;12.98;9.13;;;2.80;86.60;;;;;;5048594;28;20073;-80
2022/04/04 06:24:59;;;;;;;17.42;9.63;;;2.80;87.10;;;;;;5068506;28;20043;-80
2022/04/04 06:27:25;;;;;;;14.10;8.98;;;2.80;87.20;;;;;;5050745;28;20028;-81
2022/04/04 06:29:50;;;;;;;16.23;9.73;;;2.80;87.60;;;;;;5066472;28;20502;-79
2022/04/04 06:32:16;;;;;;;12.95;8.27;;;2.80;87.60;;;;;;5067082;28;20032;-81
2022/04/04 06:34:41;;;;;;;14.32;9.88;;;2.70;87.90;;;;;;5066362;28;20037;-80
2022/04/04 06:37:10;;;;;;;14.60;8.68;;;2.70;88.30;;;;;;5027500;28;20043;-79
2022/04/04 06:39:35;;;;;;;14.18;9.50;;;2.60;88.60;;;;;;5046652;28;20021;-81
2022/04/04 06:42:01;;;;;;;11.63;8.15;;;2.60;89.00;;;;;;5046111;28;20459;-80
2022/04/04 06:44:27;;;;;;;14.27;9.07;;;2.60;89.20;;;;;;5043689;28;20033;-80
2022/04/04 06:46:52;;;;;;;13.48;9.15;;;2.60;89.60;;;;;;5032298;28;20039;-80
2022/04/04 06:49:18;;;;;;;12.32;7.28;;;2.50;89.40;;;;;;5031209;28;20096;-81
2022/04/04 06:51:43;;;;;;;13.43;9.43;;;2.60;89.50;;;;;;5032044;28;20033;-81
2022/04/04 06:54:09;;;;;;;15.98;9.23;;;2.60;89.80;;;;;;5028262;28;20059;-81
2022/04/04 06:56:35;;;;;;;16.55;10.02;;;2.60;89.70;;;;;;5032766;28;20032;-82
2022/04/04 06:59:01;;;;;;;15.63;10.00;;;2.60;89.90;;;;;;5041959;28;20017;-82
2022/04/04 07:01:27;;;;;;;14.20;9.68;;;2.60;89.60;;;;;;5033727;28;20029;-83
2022/04/04 07:03:53;;;;;;;16.73;9.68;;;2.60;89.50;;;;;;5028565;28;20017;-82
2022/04/04 07:06:18;;;;;;;14.65;9.50;;;2.60;89.60;;;;;;5027293;28;20033;-82
2022/04/04 07:08:44;;;;;;;15.90;10.77;;;2.70;89.80;;;;;;5032787;28;20032;-82
2022/04/04 07:11:13;;;;;;;14.43;9.65;;;2.60;89.50;;;;;;5051600;28;20505;-84
2022/04/04 07:13:39;;;;;;;13.25;9.18;;;2.60;89.80;;;;;;5032653;28;20025;-83
2022/04/04 07:16:04;;;;;;;13.27;8.70;;;2.60;89.80;;;;;;5051998;28;20029;-84
2022/04/04 07:18:30;;;;;;;10.85;7.63;;;2.60;89.60;;;;;;5050656;28;20032;-85
2022/04/04 07:20:55;;;;;;;18.95;11.23;;;2.60;90.00;;;;;;5028442;28;20025;-84
2022/04/04 07:23:21;;;;;;;16.08;11.40;;;2.60;90.10;;;;;;5027341;28;20033;-85
2022/04/04 07:25:50;;;;;;;14.63;10.13;;;2.60;90.20;;;;;;5027997;28;20060;-84
2022/04/04 07:28:16;;;;;;;21.90;12.30;;;2.60;90.20;;;;;;5034035;28;20116;-85
2022/04/04 07:30:43;;;;;;;17.20;10.75;;;2.60;90.20;;;;;;5050646;28;20064;-85
2022/04/04 07:33:09;;;;;;;15.55;10.55;;;2.70;90.40;;;;;;5030339;28;20551;-85
2022/04/04 07:35:35;;;;;;;14.38;8.43;;;2.70;90.30;;;;;;5055864;28;20093;-84
2022/04/04 07:38:01;;;;;;;13.35;10.25;;;2.60;90.00;;;;;;5070235;28;20469;-84
2022/04/04 07:40:27;;;;;;;15.05;8.65;;;2.60;89.70;;;;;;5066993;28;20634;-84
2022/04/04 07:42:53;;;;;;;15.32;10.52;;;2.70;90.00;;;;;;5042222;28;20036;-84
2022/04/04 07:45:19;;;;;;;14.48;10.60;;;2.70;90.10;;;;;;5070674;28;20025;-84
2022/04/04 07:47:46;;;;;;;20.75;12.90;;;2.60;90.30;;;;;;5072701;28;20443;-84
2022/04/04 07:50:13;;;;;;;12.00;8.30;;;2.70;90.50;;;;;;5070577;28;20028;-84
2022/04/04 07:52:40;;;;;;;16.40;11.43;;;2.60;90.30;;;;;;5047290;28;20087;-84
2022/04/04 07:55:06;;;;;;;21.50;13.02;;;2.50;90.70;;;;;;5048238;28;20058;-84
2022/04/04 07:57:32;;;;;;;18.85;12.38;;;2.60;90.90;;;;;;5075031;28;20020;-84
2022/04/04 07:59:58;;;;;;;18.17;13.15;;;2.60;91.30;;;;;;5053653;28;20082;-84
2022/04/04 08:02:23;;;;;;;14.07;10.35;;;2.50;91.20;;;;;;5047744;28;20025;-82
2022/04/04 08:04:50;;;;;;;16.40;12.38;;;2.60;90.90;;;;;;5071847;28;20032;-82
2022/04/04 08:07:18;;;;;;;16.17;11.13;;;2.60;91.20;;;;;;5046618;28;20039;-82
2022/04/04 08:09:43;;;;;;;20.85;12.32;;;2.70;91.30;;;;;;5056226;28;20024;-82
2022/04/04 08:12:09;;;;;;;17.38;12.50;;;2.70;91.50;;;;;;5070847;28;20115;-82
2022/04/04 08:14:36;;;;;;;12.15;8.90;;;2.70;91.60;;;;;;5074709;28;20036;-84
2022/04/04 08:17:03;;;;;;;14.10;10.65;;;2.70;91.50;;;;;;5052465;28;20028;-84
2022/04/04 08:19:29;;;;;;;15.07;11.27;;;2.60;91.30;;;;;;5049551;28;20020;-85
2022/04/04 08:21:55;;;;;;;15.35;11.88;;;2.70;91.50;;;;;;5048120;28;20037;-85
2022/04/04 08:24:22;;;;;;;14.63;9.90;;;2.70;91.70;;;;;;5049726;28;20502;-84
2022/04/04 08:26:48;;;;;;;12.23;7.93;;;2.70;91.60;;;;;;5072855;28;20479;-84
2022/04/04 08:29:14;;;;;;;11.02;8.05;;;2.70;91.30;;;;;;5067477;28;20056;-83
2022/04/04 08:31:39;;;;;;;13.98;9.90;;;2.80;91.30;;;;;;5053915;28;20064;-84
2022/04/04 08:34:05;;;;;;;10.90;7.75;;;2.90;91.50;;;;;;5053131;28;20028;-83
2022/04/04 08:36:31;;;;;;;8.13;5.22;;;2.80;91.30;;;;;;5062908;28;20096;-83
2022/04/04 08:38:57;;;;;;;14.52;9.85;;;2.80;90.80;;;;;;5070722;28;20025;-83
2022/04/04 08:41:22;;;;;;;14.10;9.60;;;3.00;91.00;;;;;;5069629;28;20029;-83
2022/04/04 08:43:52;;;;;;;11.60;7.82;;;3.00;91.20;;;;;;5070171;28;20111;-83
2022/04/04 08:46:18;;;;;;;9.02;6.85;;;3.00;90.70;;;;;;5067494;28;20033;-84
2022/04/04 08:48:44;;;;;;;9.45;6.47;;;2.90;90.40;;;;;;5084205;28;20036;-83
2022/04/04 08:51:10;;;;;;;12.02;7.85;;;3.00;90.40;;;;;;5065554;28;20040;-83
2022/04/04 08:53:37;;;;;;;11.38;7.10;;;3.00;90.60;;;;;;5071918;28;20031;-84
2022/04/04 08:56:05;;;;;;;15.60;9.18;;;3.00;91.00;;;;;;5067175;28;20627;-83
2022/04/04 08:58:33;;;;;;;11.00;7.95;;;3.00;91.00;;;;;;5061828;28;20108;-83
2022/04/04 09:00:59;;;;;;;11.30;7.13;;;3.00;91.00;;;;;;5071462;28;20038;-83
2022/04/04 09:03:33;;;;;;;12.35;8.55;;;3.00;90.70;;;;;;5065068;28;20071;-83
2022/04/04 09:06:02;;;;;;;10.10;6.82;;;3.10;90.70;;;;;;5068945;28;20024;-83
2022/04/04 09:08:28;;;;;;;12.32;8.23;;;3.00;90.50;;;;;;5072090;28;20039;-83
2022/04/04 09:10:56;;;;;;;11.65;7.13;;;3.10;90.50;;;;;;5070485;28;20054;-83
2022/04/04 09:13:27;;;;;;;9.13;5.80;;;3.10;90.20;;;;;;5072824;28;20480;-83
2022/04/04 09:15:58;;;;;;;9.43;6.85;;;3.10;90.40;;;;;;5066537;28;20029;-84
2022/04/04 09:18:35;;;;;;;7.63;4.93;;;3.30;90.30;;;;;;5070733;28;20446;-84
2022/04/04 09:21:03;;;;;;;11.00;7.40;;;3.30;89.70;;;;;;5066836;28;20031;-84
2022/04/04 09:23:33;;;;;;;11.15;7.18;;;3.30;89.60;;;;;;5071963;28;20032;-84
2022/04/04 09:26:00;;;;;;;10.00;6.60;;;3.30;90.10;;;;;;5067196;28;20426;-83
2022/04/04 09:28:26;;;;;;;10.25;6.22;;;3.20;90.10;;;;;;5073772;28;20093;-86
2022/04/04 09:31:09;;;;;;;7.60;5.20;;;3.20;89.90;;;;;;5065991;28;20499;-84
2022/04/04 09:33:38;;;;;;;10.60;6.55;;;3.20;89.70;;;;;;5067395;28;20059;-83
2022/04/04 09:36:05;;;;;;;10.27;6.90;;;3.20;89.70;;;;;;5068004;28;20036;-82
2022/04/04 09:38:34;;;;;;;12.10;7.80;;;3.20;90.00;;;;;;5070148;28;20025;-83
2022/04/04 09:41:18;;;;;;;10.35;6.97;;;3.20;90.00;;;;;;5065750;28;20403;-82
2022/04/04 09:43:55;;;;;;;12.85;7.50;;;3.20;90.20;;;;;;5064294;28;20028;-83
2022/04/04 09:46:21;;;;;;;12.85;7.53;;;3.20;90.20;;;;;;5069344;28;20035;-83
2022/04/04 09:49:11;;;;;;;12.00;7.53;;;3.20;90.40;;;;;;5061485;28;20031;-82
2022/04/04 09:51:38;;;;;;;10.18;7.20;;;3.20;90.40;;;;;;5068997;28;20033;-83
2022/04/04 09:54:06;;;;;;;9.43;6.47;;;3.10;90.70;;;;;;5057502;28;20025;-83
2022/04/04 09:56:32;;;;;;;11.23;6.70;;;3.10;91.00;;;;;;5068409;28;20081;-84
2022/04/04 09:59:01;;;;;;;12.85;8.25;;;3.10;91.00;;;;;;5067000;28;20029;-84
2022/04/04 10:01:27;;;;;;;16.38;8.65;;;3.10;91.30;;;;;;5069386;28;20036;-84
2022/04/04 10:03:55;;;;;;;11.73;7.50;;;3.10;91.70;;;;;;5065507;28;20056;-84
2022/04/04 10:06:25;;;;;;;12.23;8.70;;;3.10;91.70;;;;;;5069873;28;20513;-84
2022/04/04 10:08:55;;;;;;;12.93;9.35;;;3.10;91.60;;;;;;5065836;28;20037;-84
2022/04/04 10:11:23;;;;;;;12.20;6.97;;;3.10;92.00;;;;;;5063703;28;20025;-84
2022/04/04 10:13:49;;;;;;;9.77;6.30;;;3.10;93.40;;;;;;5071161;28;20040;-85
2022/04/04 10:16:16;;;;;;;15.27;9.05;;;3.10;92.20;;;;;;5073153;28;20028;-85
2022/04/04 10:18:46;;;;;;;13.27;9.88;;;3.10;92.40;;;;;;5071521;28;20028;-85
2022/04/04 10:21:12;;;;;;;14.10;9.18;;;3.10;92.60;;;;;;5063828;28;20024;-85
2022/04/04 10:23:40;;;;;;;10.68;7.13;;;3.10;92.70;;;;;;5071897;28;20487;-85
2022/04/04 10:26:07;;;;;;;11.93;7.57;;;3.10;92.70;;;;;;5071964;28;20027;-85
2022/04/04 10:28:35;;;;;;;15.65;11.05;;;3.10;92.70;;;;;;5071119;28;20028;-84
2022/04/04 10:31:13;;;;;;;8.20;5.60;;;3.10;93.00;;;;;;5071408;28;20052;-85
2022/04/04 10:33:39;;;;;;;14.27;9.23;;;3.10;92.90;;;;;;5068147;28;20032;-85
2022/04/04 10:36:06;;;;;;;14.20;9.40;;;3.10;93.10;;;;;;5064280;28;20259;-85
2022/04/04 10:38:35;;;;;;;12.48;9.98;;;3.10;92.80;;;;;;5072892;28;20017;-85
2022/04/04 10:41:03;;;;;;;13.15;8.52;;;3.20;93.00;;;;;;5071074;28;20471;-84
2022/04/04 10:43:33;;;;;;;13.27;9.40;;;3.10;92.80;;;;;;5068534;28;20028;-84
2022/04/04 10:46:02;;;;;;;15.15;10.88;;;3.20;92.80;;;;;;5068496;28;20017;-85
2022/04/04 10:48:35;;;;;;;13.57;8.88;;;3.20;92.80;;;;;;5071259;28;20020;-85
2022/04/04 10:51:12;;;;;;;10.85;7.90;;;3.20;92.90;;;;;;5065007;28;20029;-84
2022/04/04 10:54:03;;;;;;;13.35;10.43;;;3.20;92.80;;;;;;5069923;28;20155;-85
2022/04/04 10:56:31;;;;;;;11.25;8.07;;;3.30;92.80;;;;;;5071418;28;20136;-85
2022/04/04 10:59:15;;;;;;;12.43;8.95;;;3.30;92.70;;;;;;5071785;28;20028;-85
2022/04/04 11:01:49;;;;;;;13.65;8.18;;;3.30;92.80;;;;;;5070608;28;20039;-85
2022/04/04 11:04:36;;;;;;;16.20;10.35;;;3.30;92.80;;;;;;5066402;28;20089;-85
2022/04/04 11:10:06;;;;;;;14.20;10.35;;;3.40;92.80;;;;;;5059570;28;20132;-85
2022/04/04 11:13:03;;;;;;;12.60;8.52;;;3.50;93.00;;;;;;5069657;28;20036;-84
2022/04/04 11:15:48;;;;;;;11.57;8.18;;;3.50;92.90;;;;;;5071474;28;20036;-81
2022/04/04 11:18:14;;;;;;;14.30;10.93;;;3.50;92.70;;;;;;5072005;28;20440;-82
2022/04/04 11:20:50;;;;;;;12.68;9.68;;;3.60;92.70;;;;;;5064819;28;20028;-83
2022/04/04 11:23:17;;;;;;;13.98;10.48;;;3.60;92.60;;;;;;5059493;28;20034;-82
2022/04/04 11:25:52;;;;;;;13.38;8.75;;;3.60;92.40;;;;;;5071293;28;20074;-82
2022/04/04 11:28:24;;;;;;;12.13;9.65;;;3.70;92.20;;;;;;5072335;28;20040;-82
2022/04/04 11:30:54;;;;;;;10.60;7.28;;;3.70;92.40;;;;;;5071356;28;20028;-82
2022/04/04 11:33:23;;;;;;;13.63;10.57;;;3.60;92.40;;;;;;5072694;28;20154;-81
2022/04/04 11:35:50;;;;;;;13.32;9.18;;;3.70;92.50;;;;;;5069764;28;20089;-82
2022/04/04 11:38:19;;;;;;;15.02;11.32;;;3.60;92.80;;;;;;5046886;28;20029;-82
2022/04/04 11:40:52;;;;;;;13.18;10.52;;;3.70;93.00;;;;;;5069586;28;20029;-82
2022/04/04 11:43:21;;;;;;;13.82;9.48;;;3.70;92.90;;;;;;5052413;28;20028;-82
2022/04/04 11:45:49;;;;;;;14.85;11.15;;;3.60;93.00;;;;;;5054824;28;20070;-82
2022/04/04 11:48:19;;;;;;;13.18;9.52;;;3.70;93.20;;;;;;5040552;28;20434;-82
2022/04/04 11:50:45;;;;;;;13.80;10.33;;;3.80;93.00;;;;;;5070793;28;20435;-82
2022/04/04 11:53:16;;;;;;;15.52;10.98;;;3.80;93.00;;;;;;5037972;28;20488;-82
2022/04/04 11:55:45;;;;;;;12.35;9.40;;;3.80;92.90;;;;;;5064214;28;20024;-82
2022/04/04 11:58:20;;;;;;;13.70;9.57;;;3.90;93.00;;;;;;5054156;28;20023;-82
2022/04/04 12:00:54;;;;;;;9.88;7.57;;;3.90;93.00;;;;;;5063980;28;20028;-82
2022/04/04 12:03:20;;;;;;;14.65;10.00;;;3.90;92.90;;;;;;5068777;28;20033;-82
2022/04/04 12:05:48;;;;;;;16.13;9.68;;;4.00;92.60;;;;;;5052458;28;20024;-81
2022/04/04 12:08:15;;;;;;;13.88;10.68;;;4.00;92.50;;;;;;5053934;28;20024;-81
2022/04/04 12:10:42;;;;;;;14.48;11.60;;;4.10;92.80;;;;;;5053782;28;20025;-81
2022/04/04 12:13:19;;;;;;;11.82;8.45;;;4.00;92.70;;;;;;5053265;28;20029;-83
2022/04/04 12:15:46;;;;;;;14.70;11.48;;;4.10;93.00;;;;;;5067266;28;20021;-83
2022/04/04 12:18:23;;;;;;;12.38;8.63;;;4.10;93.30;;;;;;5044038;28;20525;-84
2022/04/04 12:20:49;;;;;;;12.82;9.32;;;4.10;93.10;;;;;;5051018;28;20024;-84
2022/04/04 12:26:04;;;;;;;14.10;11.13;;;4.10;93.10;;;;;;5068561;28;20059;-84
2022/04/04 12:28:35;;;;;;;13.98;9.80;;;4.10;93.10;;;;;;5053601;28;20036;-84
2022/04/04 12:31:13;;;;;;;13.30;9.65;;;4.10;93.30;;;;;;5070731;28;20029;-84
2022/04/04 12:33:40;;;;;;;13.50;10.35;;;4.10;93.50;;;;;;5070015;28;20033;-84
2022/04/04 12:36:06;;;;;;;13.90;10.48;;;4.10;93.50;;;;;;5069590;28;20086;-84
2022/04/04 12:38:35;;;;;;;13.57;10.43;;;4.20;93.50;;;;;;5056596;28;20032;-84
2022/04/04 12:41:15;;;;;;;13.75;10.23;;;4.20;93.50;;;;;;5057248;28;20078;-84
2022/04/04 12:44:02;;;;;;;8.88;6.57;;;4.20;93.30;;;;;;5050624;28;20031;-84
2022/04/04 12:46:30;;;;;;;11.77;8.15;;;4.30;93.40;;;;;;5053098;28;20063;-84
2022/04/04 12:49:17;;;;;;;13.43;8.50;;;4.20;93.40;;;;;;5047685;28;20479;-85
2022/04/04 12:51:59;;;;;;;9.25;7.07;;;4.30;93.30;;;;;;5049187;28;20033;-84
2022/04/04 12:54:34;;;;;;;11.52;8.60;;;4.30;93.30;;;;;;5070793;28;20095;-84
2022/04/04 12:57:01;;;;;;;8.43;6.47;;;4.30;93.50;;;;;;5057745;28;20024;-84
2022/04/04 12:59:28;;;;;;;14.02;8.70;;;4.30;93.10;;;;;;5072440;28;20055;-84